createdAt,value
2023-01-22T00:01:09.135Z,17.00
2023-01-22T00:03:40.070Z,18.47
2023-01-22T00:06:07.120Z,16.20
2023-01-22T00:08:34.636Z,16.33
2023-01-22T00:11:02.697Z,17.90
2023-01-22T00:13:29.476Z,16.47
2023-01-22T00:15:59.661Z,16.33
2023-01-22T00:18:26.436Z,16.47
2023-01-22T00:20:54.502Z,15.63
2023-01-22T00:23:21.229Z,16.50
2023-01-22T00:25:47.631Z,17.50
2023-01-22T00:28:14.301Z,19.37
2023-01-22T00:30:40.743Z,19.20
2023-01-22T00:33:07.157Z,17.63
2023-01-22T00:35:35.157Z,17.73
2023-01-22T00:38:03.784Z,20.13
2023-01-22T00:40:30.317Z,17.87
2023-01-22T00:42:56.802Z,18.00
2023-01-22T00:45:23.322Z,21.50
2023-01-22T00:47:50.886Z,19.80
2023-01-22T00:50:17.751Z,18.30
2023-01-22T00:52:44.954Z,16.70
2023-01-22T00:55:11.651Z,16.97
2023-01-22T00:57:38.049Z,20.40
2023-01-22T01:00:05.411Z,20.40
2023-01-22T01:02:32.188Z,16.83
2023-01-22T01:04:58.601Z,18.33
2023-01-22T01:07:25.004Z,21.33
2023-01-22T01:09:51.478Z,19.23
2023-01-22T01:12:19.894Z,19.87
2023-01-22T01:14:46.315Z,18.67
2023-01-22T01:17:12.743Z,19.53
2023-01-22T01:19:39.386Z,19.20
2023-01-22T01:22:08.067Z,16.17
2023-01-22T01:24:36.406Z,20.83
2023-01-22T01:27:02.831Z,18.33
2023-01-22T01:29:29.848Z,18.00
2023-01-22T01:31:57.746Z,15.80
2023-01-22T01:34:24.261Z,16.37
2023-01-22T01:36:50.774Z,17.10
2023-01-22T01:39:17.994Z,17.50
2023-01-22T01:41:44.632Z,17.30
2023-01-22T01:44:21.682Z,18.43
2023-01-22T01:47:00.294Z,18.37
2023-01-22T01:49:48.675Z,19.17
2023-01-22T01:52:17.455Z,16.93
2023-01-22T01:54:49.232Z,18.53
2023-01-22T01:57:21.002Z,18.63
2023-01-22T01:59:49.493Z,15.10
2023-01-22T02:02:17.090Z,23.30
2023-01-22T02:04:43.543Z,16.23
2023-01-22T02:07:10.371Z,17.63
2023-01-22T02:09:36.979Z,19.53
2023-01-22T02:12:04.581Z,19.20
2023-01-22T02:14:34.169Z,17.97
2023-01-22T02:17:12.727Z,18.17
2023-01-22T02:19:40.544Z,17.80
2023-01-22T02:22:21.918Z,18.90
2023-01-22T02:24:49.252Z,18.07
2023-01-22T02:27:17.929Z,18.60
2023-01-22T02:29:46.167Z,18.23
2023-01-22T02:32:12.976Z,17.90
2023-01-22T02:34:39.721Z,18.07
2023-01-22T02:37:06.875Z,16.30
2023-01-22T02:39:33.367Z,17.60
2023-01-22T02:42:04.793Z,15.37
2023-01-22T02:44:31.986Z,18.87
2023-01-22T02:46:58.421Z,16.97
2023-01-22T02:49:26.557Z,14.47
2023-01-22T02:51:52.995Z,18.10
2023-01-22T02:54:20.548Z,13.73
2023-01-22T02:56:47.105Z,15.70
2023-01-22T02:59:13.635Z,18.97
2023-01-22T03:01:41.067Z,16.87
2023-01-22T03:04:13.517Z,14.67
2023-01-22T03:06:44.429Z,14.80
2023-01-22T03:09:13.819Z,15.73
2023-01-22T03:11:42.468Z,16.10
2023-01-22T03:14:53.550Z,16.40
2023-01-22T03:17:38.855Z,16.37
2023-01-22T03:20:24.849Z,14.30
2023-01-22T03:22:52.636Z,15.63
2023-01-22T03:25:19.338Z,16.23
2023-01-22T03:28:07.029Z,15.47
2023-01-22T03:30:34.952Z,13.87
2023-01-22T03:33:02.312Z,15.93
2023-01-22T03:35:30.566Z,14.27
2023-01-22T03:38:11.740Z,14.20
2023-01-22T03:40:38.156Z,13.80
2023-01-22T03:43:04.810Z,14.33
2023-01-22T03:45:33.911Z,13.33
2023-01-22T03:48:02.182Z,12.43
2023-01-22T03:50:35.115Z,14.77
2023-01-22T03:53:03.948Z,12.07
2023-01-22T03:55:31.559Z,12.40
2023-01-22T03:57:57.970Z,13.00
2023-01-22T04:00:24.608Z,13.17
2023-01-22T04:02:53.578Z,13.43
2023-01-22T04:05:24.122Z,14.73
2023-01-22T04:07:50.881Z,16.37
2023-01-22T04:10:21.431Z,12.93
2023-01-22T04:12:48.590Z,11.70
2023-01-22T04:15:18.169Z,15.10
2023-01-22T04:17:46.076Z,13.77
2023-01-22T04:20:27.355Z,13.23
2023-01-22T04:23:17.167Z,14.37
2023-01-22T04:25:44.765Z,13.90
2023-01-22T04:28:11.920Z,13.03
2023-01-22T04:30:38.890Z,10.90
2023-01-22T04:33:24.058Z,14.50
2023-01-22T04:36:08.564Z,13.97
2023-01-22T04:38:35.148Z,12.70
2023-01-22T04:41:02.560Z,13.03
2023-01-22T04:43:29.057Z,15.40
2023-01-22T04:45:55.558Z,16.47
2023-01-22T04:48:28.246Z,14.40
2023-01-22T04:50:54.745Z,15.63
2023-01-22T04:53:21.347Z,15.53
2023-01-22T04:55:47.860Z,13.07
2023-01-22T04:58:14.792Z,15.50
2023-01-22T05:00:41.864Z,17.37
2023-01-22T05:03:10.545Z,16.00
2023-01-22T05:05:37.068Z,15.47
2023-01-22T05:08:04.115Z,14.27
2023-01-22T05:10:34.040Z,14.20
2023-01-22T05:13:06.131Z,15.60
2023-01-22T05:15:34.290Z,15.87
2023-01-22T05:18:06.623Z,17.17
2023-01-22T05:20:35.839Z,16.63
2023-01-22T05:23:02.365Z,15.87
2023-01-22T05:25:30.455Z,16.00
2023-01-22T05:27:58.218Z,16.20
2023-01-22T05:30:43.362Z,15.93
2023-01-22T05:33:24.057Z,18.30
2023-01-22T05:35:58.697Z,17.93
2023-01-22T05:38:25.923Z,18.20
2023-01-22T05:40:52.973Z,18.23
2023-01-22T05:43:20.814Z,16.20
2023-01-22T05:45:53.311Z,19.00
2023-01-22T05:48:42.985Z,16.67
2023-01-22T05:51:12.481Z,18.40
2023-01-22T05:53:39.319Z,17.13
2023-01-22T05:56:06.295Z,16.27
2023-01-22T05:58:37.170Z,17.83
2023-01-22T06:01:04.357Z,19.27
2023-01-22T06:03:38.092Z,19.77
2023-01-22T06:06:08.700Z,19.37
2023-01-22T06:08:35.208Z,17.10
2023-01-22T06:11:07.092Z,22.33
2023-01-22T06:13:34.285Z,20.40
2023-01-22T06:16:09.646Z,20.53
2023-01-22T06:18:54.913Z,20.57
2023-01-22T06:21:23.535Z,21.10
2023-01-22T06:23:50.484Z,18.17
2023-01-22T06:26:17.543Z,20.23
2023-01-22T06:28:44.594Z,19.13
2023-01-22T06:31:11.261Z,18.40
2023-01-22T06:33:38.619Z,22.27
2023-01-22T06:36:06.072Z,20.97
2023-01-22T06:38:33.148Z,17.50
2023-01-22T06:41:02.577Z,17.83
2023-01-22T06:43:33.131Z,17.67
2023-01-22T06:45:59.689Z,20.47
2023-01-22T06:48:54.205Z,16.53
2023-01-22T06:51:20.699Z,21.20
2023-01-22T06:53:47.266Z,16.80
2023-01-22T06:56:13.747Z,18.00
2023-01-22T06:58:40.659Z,22.60
2023-01-22T07:01:07.647Z,18.17
2023-01-22T07:03:34.161Z,20.10
2023-01-22T07:06:02.756Z,18.83
2023-01-22T07:08:31.484Z,22.20
2023-01-22T07:10:58.509Z,19.63
2023-01-22T07:13:24.968Z,21.17
2023-01-22T07:15:51.594Z,19.70
2023-01-22T07:18:19.951Z,20.23
2023-01-22T07:20:47.279Z,22.97
2023-01-22T07:23:13.986Z,18.90
2023-01-22T07:25:40.826Z,21.47
2023-01-22T07:28:07.641Z,18.37
2023-01-22T07:30:34.305Z,20.70
2023-01-22T07:33:02.594Z,20.93
2023-01-22T07:35:29.480Z,20.83
2023-01-22T07:37:58.470Z,20.00
2023-01-22T07:40:25.819Z,19.30
2023-01-22T07:42:53.044Z,23.00
2023-01-22T07:45:21.279Z,22.07
2023-01-22T07:47:58.695Z,22.43
2023-01-22T07:50:30.672Z,22.73
2023-01-22T07:52:57.529Z,21.33
2023-01-22T07:55:24.017Z,25.37
2023-01-22T07:58:01.979Z,20.67
2023-01-22T08:00:28.694Z,22.13
2023-01-22T08:02:55.202Z,19.70
2023-01-22T08:05:22.008Z,20.07
2023-01-22T08:07:48.523Z,25.47
2023-01-22T08:10:17.069Z,23.50
2023-01-22T08:12:46.152Z,19.80
2023-01-22T08:15:14.574Z,21.80
2023-01-22T08:17:41.743Z,17.37
2023-01-22T08:20:09.572Z,18.97
2023-01-22T08:22:36.121Z,19.10
2023-01-22T08:25:02.603Z,20.77
2023-01-22T08:27:29.080Z,21.50
2023-01-22T08:29:55.496Z,20.63
2023-01-22T08:32:22.094Z,18.63
2023-01-22T08:34:48.580Z,23.30
2023-01-22T08:37:15.025Z,24.73
2023-01-22T08:39:41.501Z,21.13
2023-01-22T08:42:07.897Z,20.40
2023-01-22T08:44:34.430Z,21.50
2023-01-22T08:47:00.857Z,19.27
2023-01-22T08:49:27.275Z,19.00
2023-01-22T08:51:53.692Z,17.80
2023-01-22T08:54:20.121Z,20.10
2023-01-22T08:56:47.953Z,17.10
2023-01-22T08:59:15.634Z,18.17
2023-01-22T09:01:42.128Z,18.43
2023-01-22T09:04:09.929Z,23.33
2023-01-22T09:06:38.499Z,18.53
2023-01-22T09:09:07.129Z,19.10
2023-01-22T09:11:34.004Z,17.37
2023-01-22T09:14:00.457Z,15.43
2023-01-22T09:16:27.851Z,18.47
2023-01-22T09:18:54.469Z,19.97
2023-01-22T09:21:20.922Z,18.50
2023-01-22T09:23:47.670Z,17.30
2023-01-22T09:26:14.138Z,18.13
2023-01-22T09:28:40.868Z,17.90
2023-01-22T09:31:07.461Z,20.73
2023-01-22T09:33:33.921Z,20.37
2023-01-22T09:36:08.095Z,21.70
2023-01-22T09:38:34.710Z,27.73
2023-01-22T09:41:11.147Z,20.80
2023-01-22T09:43:50.563Z,22.77
2023-01-22T09:46:23.084Z,21.67
2023-01-22T09:48:59.936Z,19.60
2023-01-22T09:51:26.507Z,18.97
2023-01-22T09:53:56.854Z,19.03
2023-01-22T09:56:40.138Z,19.77
2023-01-22T09:59:12.594Z,19.40
2023-01-22T10:01:39.043Z,20.73
2023-01-22T10:04:14.060Z,19.17
2023-01-22T10:06:43.446Z,15.77
2023-01-22T10:09:15.952Z,16.63
2023-01-22T10:11:50.095Z,18.20
2023-01-22T10:14:19.206Z,19.00
2023-01-22T10:16:45.848Z,19.30
2023-01-22T10:19:26.520Z,19.13
2023-01-22T10:22:02.271Z,18.23
2023-01-22T10:24:30.097Z,14.97
2023-01-22T10:26:58.880Z,19.80
2023-01-22T10:29:30.942Z,19.97
2023-01-22T10:32:02.905Z,17.93
2023-01-22T10:34:36.187Z,16.47
2023-01-22T10:37:22.855Z,15.43
2023-01-22T10:39:50.551Z,19.37
2023-01-22T10:42:22.980Z,15.73
2023-01-22T10:44:50.297Z,15.13
2023-01-22T10:47:20.635Z,12.50
2023-01-22T10:49:48.969Z,15.77
2023-01-22T10:52:24.738Z,15.57
2023-01-22T10:54:55.532Z,16.60
2023-01-22T10:57:43.110Z,15.07
2023-01-22T11:00:18.774Z,17.17
2023-01-22T11:02:47.791Z,14.80
2023-01-22T11:05:24.295Z,14.87
2023-01-22T11:08:07.169Z,14.50
2023-01-22T11:10:48.715Z,16.83
2023-01-22T11:13:28.667Z,13.17
2023-01-22T11:16:11.815Z,12.13
2023-01-22T11:18:42.363Z,18.20
2023-01-22T11:21:32.115Z,11.67
2023-01-22T11:24:13.373Z,14.77
2023-01-22T11:26:57.415Z,14.93
2023-01-22T11:29:39.150Z,11.13
2023-01-22T11:32:11.531Z,10.70
2023-01-22T11:35:17.192Z,10.03
2023-01-22T11:38:10.664Z,11.27
2023-01-22T11:41:11.076Z,9.87
2023-01-22T11:43:49.930Z,10.00
2023-01-22T11:46:42.330Z,10.77
2023-01-22T11:49:36.765Z,10.57
2023-01-22T11:52:41.147Z,10.03
2023-01-22T11:55:35.126Z,8.90
2023-01-22T11:58:26.731Z,10.43
2023-01-22T12:01:08.679Z,11.33
2023-01-22T12:04:01.103Z,12.07
2023-01-22T12:06:39.479Z,9.00
2023-01-22T12:09:15.809Z,10.30
2023-01-22T12:12:04.874Z,9.77
2023-01-22T12:14:47.162Z,10.83
2023-01-22T12:17:38.781Z,9.50
2023-01-22T12:20:25.477Z,7.90
2023-01-22T12:23:00.895Z,11.17
2023-01-22T12:25:51.708Z,10.17
2023-01-22T12:28:24.483Z,8.73
2023-01-22T12:31:00.273Z,8.17
2023-01-22T12:33:31.421Z,8.57
2023-01-22T12:36:02.438Z,9.00
2023-01-22T12:38:46.733Z,10.20
2023-01-22T12:41:26.939Z,8.23
2023-01-22T12:43:59.807Z,7.77
2023-01-22T12:47:02.885Z,9.03
2023-01-22T12:49:29.376Z,8.77
2023-01-22T12:51:59.844Z,8.50
2023-01-22T12:54:26.249Z,7.23
2023-01-22T12:57:10.169Z,9.10
2023-01-22T12:59:36.489Z,7.43
2023-01-22T13:02:26.345Z,8.57
2023-01-22T13:04:53.889Z,7.33
2023-01-22T13:07:29.456Z,12.03
2023-01-22T13:10:21.389Z,10.23
2023-01-22T13:12:57.206Z,10.27
2023-01-22T13:15:28.269Z,9.67
2023-01-22T13:18:06.239Z,13.33
2023-01-22T13:20:37.291Z,9.37
2023-01-22T13:23:06.505Z,11.00
2023-01-22T13:25:33.492Z,10.47
2023-01-22T13:28:01.634Z,12.83
2023-01-22T13:30:30.874Z,10.23
2023-01-22T13:33:05.056Z,12.00
2023-01-22T13:35:34.898Z,10.83
2023-01-22T13:38:02.295Z,10.93
2023-01-22T13:40:37.095Z,10.63
2023-01-22T13:43:16.749Z,14.53
2023-01-22T13:45:43.431Z,14.73
2023-01-22T13:48:15.954Z,16.87
2023-01-22T13:50:47.704Z,16.00
2023-01-22T13:53:53.059Z,17.53
2023-01-22T13:56:22.907Z,17.03
2023-01-22T13:58:50.106Z,16.40
2023-01-22T14:01:29.781Z,20.10
2023-01-22T14:04:02.047Z,22.00
2023-01-22T14:06:29.668Z,23.27
2023-01-22T14:08:57.245Z,21.50
2023-01-22T14:11:23.804Z,21.73
2023-01-22T14:13:52.118Z,17.47
2023-01-22T14:16:18.797Z,20.30
2023-01-22T14:18:46.768Z,21.90
2023-01-22T14:21:13.812Z,19.23
2023-01-22T14:23:41.711Z,23.63
2023-01-22T14:26:09.223Z,21.77
2023-01-22T14:28:36.395Z,22.17
2023-01-22T14:31:02.981Z,20.07
2023-01-22T14:33:32.421Z,20.40
2023-01-22T14:35:59.398Z,22.57
2023-01-22T14:38:27.060Z,21.60
2023-01-22T14:40:54.071Z,24.10
2023-01-22T14:43:20.956Z,17.90
2023-01-22T14:45:47.610Z,19.47
2023-01-22T14:48:18.050Z,19.87
2023-01-22T14:50:44.888Z,17.13
2023-01-22T14:53:12.711Z,18.80
2023-01-22T14:55:39.189Z,17.50
2023-01-22T14:58:08.437Z,17.60
2023-01-22T15:00:34.933Z,16.30
2023-01-22T15:03:01.462Z,13.03
2023-01-22T15:05:28.353Z,15.40
2023-01-22T15:07:54.923Z,14.37
2023-01-22T15:10:21.777Z,16.87
2023-01-22T15:12:50.403Z,13.87
2023-01-22T15:15:22.880Z,20.60
2023-01-22T15:17:52.744Z,14.07
2023-01-22T15:20:20.225Z,16.93
2023-01-22T15:22:47.108Z,15.53
2023-01-22T15:25:13.654Z,16.70
2023-01-22T15:27:40.208Z,17.93
2023-01-22T15:30:07.396Z,18.93
2023-01-22T15:32:33.872Z,17.47
2023-01-22T15:35:00.271Z,18.40
2023-01-22T15:37:26.670Z,22.10
2023-01-22T15:39:53.102Z,20.17
2023-01-22T15:42:19.651Z,14.70
2023-01-22T15:44:46.055Z,15.37
2023-01-22T15:47:14.322Z,13.27
2023-01-22T15:49:41.585Z,15.70
2023-01-22T15:52:08.124Z,16.97
2023-01-22T15:54:34.524Z,18.03
2023-01-22T15:57:00.959Z,17.60
2023-01-22T15:59:27.328Z,14.40
2023-01-22T16:01:53.777Z,16.83
2023-01-22T16:04:20.171Z,18.13
2023-01-22T16:06:46.844Z,16.30
2023-01-22T16:09:13.416Z,15.77
2023-01-22T16:11:39.914Z,16.37
2023-01-22T16:14:06.517Z,16.27
2023-01-22T16:16:36.664Z,17.23
2023-01-22T16:19:06.375Z,19.27
2023-01-22T16:21:32.867Z,14.13
2023-01-22T16:24:00.831Z,17.17
2023-01-22T16:26:30.587Z,18.00
2023-01-22T16:28:59.150Z,18.57
2023-01-22T16:31:28.267Z,23.20
2023-01-22T16:33:57.340Z,19.17
2023-01-22T16:36:26.367Z,21.00
2023-01-22T16:38:52.989Z,22.00
2023-01-22T16:41:24.720Z,22.30
2023-01-22T16:44:00.798Z,17.13
2023-01-22T16:46:29.994Z,17.07
2023-01-22T16:48:58.766Z,20.83
2023-01-22T16:51:27.808Z,20.27
2023-01-22T16:53:54.482Z,16.27
2023-01-22T16:56:21.011Z,15.57
2023-01-22T16:58:47.493Z,19.20
2023-01-22T17:01:14.701Z,18.17
2023-01-22T17:03:41.551Z,19.03
2023-01-22T17:06:22.739Z,15.93
2023-01-22T17:08:50.473Z,15.10
2023-01-22T17:11:17.345Z,20.93
2023-01-22T17:13:44.176Z,22.57
2023-01-22T17:16:11.796Z,25.70
2023-01-22T17:18:38.555Z,31.90
2023-01-22T17:21:06.869Z,30.83
2023-01-22T17:23:34.480Z,31.93
2023-01-22T17:26:08.773Z,26.97
2023-01-22T17:28:37.390Z,27.17
2023-01-22T17:31:08.267Z,46.00
2023-01-22T17:33:35.689Z,46.60
2023-01-22T17:36:04.087Z,46.77
2023-01-22T17:38:32.988Z,31.97
2023-01-22T17:41:07.140Z,39.00
2023-01-22T17:43:34.720Z,27.57
2023-01-22T17:46:01.434Z,19.47
2023-01-22T17:48:28.381Z,22.53
2023-01-22T17:50:54.820Z,23.63
2023-01-22T17:53:21.292Z,19.90
2023-01-22T17:55:47.912Z,18.47
2023-01-22T17:58:14.435Z,20.97
2023-01-22T18:00:40.951Z,18.07
2023-01-22T18:03:07.613Z,17.57
2023-01-22T18:05:34.374Z,16.23
2023-01-22T18:08:00.890Z,18.33
2023-01-22T18:10:28.161Z,19.73
2023-01-22T18:12:54.613Z,21.33
2023-01-22T18:15:21.658Z,22.60
2023-01-22T18:17:49.413Z,25.50
2023-01-22T18:20:16.259Z,21.37
2023-01-22T18:22:42.865Z,24.67
2023-01-22T18:25:09.560Z,21.57
2023-01-22T18:27:35.985Z,21.70
2023-01-22T18:30:03.153Z,20.70
2023-01-22T18:32:29.576Z,26.80
2023-01-22T18:34:56.038Z,27.87
2023-01-22T18:37:22.492Z,30.10
2023-01-22T18:39:48.895Z,29.07
2023-01-22T18:42:15.441Z,25.57
2023-01-22T18:44:41.883Z,27.33
2023-01-22T18:47:11.331Z,30.87
2023-01-22T18:49:37.915Z,29.07
2023-01-22T18:52:04.500Z,29.50
2023-01-22T18:54:30.945Z,26.87
2023-01-22T18:56:58.091Z,29.20
2023-01-22T18:59:24.522Z,32.87
2023-01-22T19:01:51.817Z,31.67
2023-01-22T19:04:21.669Z,32.20
2023-01-22T19:06:53.261Z,28.77
2023-01-22T19:09:20.767Z,31.30
2023-01-22T19:11:49.156Z,30.60
2023-01-22T19:14:17.920Z,32.27
2023-01-22T19:16:44.941Z,28.63
2023-01-22T19:19:13.565Z,28.27
2023-01-22T19:21:46.755Z,31.70
2023-01-22T19:24:15.769Z,29.53
2023-01-22T19:26:45.381Z,29.47
2023-01-22T19:29:15.494Z,29.80
2023-01-22T19:31:46.255Z,30.87
2023-01-22T19:34:16.236Z,26.93
2023-01-22T19:36:42.914Z,24.97
2023-01-22T19:39:11.899Z,24.93
2023-01-22T19:41:42.648Z,29.00
2023-01-22T19:44:10.826Z,31.27
2023-01-22T19:46:38.519Z,27.50
2023-01-22T19:49:06.456Z,27.80
2023-01-22T19:51:33.816Z,26.93
2023-01-22T19:54:01.258Z,27.60
2023-01-22T19:56:30.118Z,25.57
2023-01-22T19:59:06.407Z,26.73
2023-01-22T20:01:34.034Z,23.27
2023-01-22T20:04:00.738Z,25.37
2023-01-22T20:06:27.443Z,30.43
2023-01-22T20:08:55.749Z,24.33
2023-01-22T20:11:22.710Z,24.57
2023-01-22T20:13:49.226Z,23.43
2023-01-22T20:16:22.186Z,24.57
2023-01-22T20:18:49.724Z,25.03
2023-01-22T20:21:17.055Z,27.67
2023-01-22T20:23:45.592Z,27.63
2023-01-22T20:26:12.970Z,26.60
2023-01-22T20:28:39.700Z,29.83
2023-01-22T20:31:11.170Z,25.30
2023-01-22T20:33:38.404Z,26.40
2023-01-22T20:36:07.832Z,25.63
2023-01-22T20:38:35.344Z,25.20
2023-01-22T20:41:05.293Z,24.20
2023-01-22T20:43:32.350Z,23.63
2023-01-22T20:46:04.769Z,27.63
2023-01-22T20:48:33.190Z,21.93
2023-01-22T20:51:00.461Z,23.73
2023-01-22T20:53:27.847Z,21.37
2023-01-22T20:55:59.454Z,24.13
2023-01-22T20:58:26.383Z,24.27
2023-01-22T21:00:52.839Z,26.07
2023-01-22T21:03:20.751Z,26.10
2023-01-22T21:05:47.189Z,26.13
2023-01-22T21:08:14.947Z,31.00
2023-01-22T21:10:41.973Z,30.30
2023-01-22T21:13:08.442Z,32.33
2023-01-22T21:15:34.858Z,29.10
2023-01-22T21:18:01.438Z,35.93
2023-01-22T21:20:28.025Z,32.60
2023-01-22T21:22:54.436Z,31.57
2023-01-22T21:25:20.831Z,29.27
2023-01-22T21:27:48.126Z,30.00
2023-01-22T21:30:17.088Z,25.97
2023-01-22T21:32:43.788Z,31.07
2023-01-22T21:35:10.593Z,32.73
2023-01-22T21:37:36.993Z,30.30
2023-01-22T21:40:04.037Z,32.17
2023-01-22T21:42:48.969Z,33.43
2023-01-22T21:45:33.996Z,32.40
2023-01-22T21:48:00.396Z,29.87
2023-01-22T21:50:29.406Z,29.17
2023-01-22T21:52:55.806Z,33.80
2023-01-22T21:55:23.485Z,38.27
2023-01-22T21:57:51.093Z,39.47
2023-01-22T22:00:19.555Z,39.17
2023-01-22T22:02:46.266Z,34.43
2023-01-22T22:05:12.976Z,36.80
2023-01-22T22:07:39.398Z,36.27
2023-01-22T22:10:11.620Z,38.33
2023-01-22T22:12:39.385Z,41.43
2023-01-22T22:15:06.702Z,38.90
2023-01-22T22:17:33.128Z,36.47
2023-01-22T22:19:59.514Z,36.13
2023-01-22T22:22:25.960Z,36.07
2023-01-22T22:24:53.655Z,37.73
2023-01-22T22:27:20.787Z,34.33
2023-01-22T22:29:47.266Z,34.47
2023-01-22T22:32:13.888Z,34.83
2023-01-22T22:34:40.540Z,34.27
2023-01-22T22:37:07.007Z,38.10
2023-01-22T22:39:33.432Z,34.10
2023-01-22T22:41:59.814Z,34.10
2023-01-22T22:44:26.190Z,33.37
2023-01-22T22:46:52.615Z,32.67
2023-01-22T22:49:19.017Z,34.17
2023-01-22T22:51:46.095Z,32.67
2023-01-22T22:54:17.773Z,30.63
2023-01-22T22:56:46.463Z,28.93
2023-01-22T22:59:14.050Z,32.00
2023-01-22T23:01:40.598Z,31.97
2023-01-22T23:04:08.268Z,30.07
2023-01-22T23:06:36.108Z,29.80
2023-01-22T23:09:10.849Z,30.03
2023-01-22T23:11:38.174Z,34.40
2023-01-22T23:14:05.064Z,31.77
2023-01-22T23:16:34.954Z,34.03
2023-01-22T23:19:04.361Z,28.13
2023-01-22T23:21:30.940Z,30.20
2023-01-22T23:23:57.380Z,29.00
2023-01-22T23:26:29.798Z,26.50
2023-01-22T23:28:58.785Z,27.30
2023-01-22T23:31:27.016Z,25.00
2023-01-22T23:33:55.440Z,29.97
2023-01-22T23:36:22.547Z,26.77
2023-01-22T23:38:49.623Z,25.23
2023-01-22T23:41:17.557Z,24.23
2023-01-22T23:43:44.546Z,25.83
2023-01-22T23:46:16.935Z,26.07
2023-01-22T23:48:43.573Z,26.13
2023-01-22T23:51:12.066Z,24.70
2023-01-22T23:53:41.067Z,26.93
2023-01-22T23:56:09.424Z,24.17
2023-01-22T23:58:36.053Z,23.47
